Time;durP1;ratioP1;P1;durP2;ratioP2;P2;SDS_P1;SDS_P2;PMS_P1;PMS_P2;Temp;Humidity;BMP_temperature;BMP_pressure;BME280_temperature;BME280_humidity;BME280_pressure;Samples;Min_cycle;Max_cycle;Signal;HPM_P1;HPM_P2
2023/03/08 03:46:03;;;;;;;16.75;13.20;;;-1.40;99.90;;;;;;5032984;23;20049;-85
2023/03/08 03:48:29;;;;;;;17.50;13.23;;;-1.40;99.90;;;;;;5002351;28;20042;-85
2023/03/08 03:51:00;;;;;;;19.27;13.52;;;-1.40;99.90;;;;;;5017336;28;20041;-84
2023/03/08 03:53:30;;;;;;;16.10;13.18;;;-1.50;99.90;;;;;;4988299;28;20038;-85
2023/03/08 03:56:10;;;;;;;17.98;14.30;;;-1.50;99.90;;;;;;5025863;28;20494;-85
2023/03/08 03:58:35;;;;;;;19.27;13.40;;;-1.50;99.90;;;;;;4990689;28;20149;-85
2023/03/08 04:01:09;;;;;;;16.90;13.13;;;-1.50;99.90;;;;;;5036239;28;20034;-85
2023/03/08 04:03:34;;;;;;;17.05;13.32;;;-1.50;99.90;;;;;;5051700;28;20042;-85
2023/03/08 04:06:17;;;;;;;18.25;13.88;;;-1.50;99.90;;;;;;5015188;28;20046;-85
2023/03/08 04:08:43;;;;;;;16.95;13.25;;;-1.50;99.90;;;;;;5004120;28;20045;-85
2023/03/08 04:11:11;;;;;;;16.88;12.65;;;-1.50;99.90;;;;;;5031711;28;20041;-85
2023/03/08 04:13:37;;;;;;;21.25;14.23;;;-1.50;99.90;;;;;;5014174;28;20038;-85
2023/03/08 04:16:21;;;;;;;15.40;13.10;;;-1.50;99.90;;;;;;4996051;28;20037;-84
2023/03/08 04:18:47;;;;;;;18.52;13.55;;;-1.50;99.90;;;;;;5013893;28;20037;-85
2023/03/08 04:21:14;;;;;;;16.65;13.95;;;-1.50;99.90;;;;;;5008130;28;20044;-84
2023/03/08 04:23:40;;;;;;;16.40;13.38;;;-1.60;99.90;;;;;;5017125;28;20038;-83
2023/03/08 04:26:06;;;;;;;17.15;13.45;;;-1.60;99.90;;;;;;5034753;28;20036;-84
2023/03/08 04:28:33;;;;;;;15.68;13.07;;;-1.60;99.90;;;;;;5004296;28;20045;-84
2023/03/08 04:30:59;;;;;;;14.85;12.15;;;-1.60;99.90;;;;;;5005096;28;20038;-85
2023/03/08 04:33:25;;;;;;;15.20;12.65;;;-1.60;99.90;;;;;;5005162;28;20048;-85
2023/03/08 04:35:51;;;;;;;20.35;14.70;;;-1.70;99.90;;;;;;5029520;28;20038;-85
2023/03/08 04:38:17;;;;;;;15.60;12.57;;;-1.70;99.90;;;;;;5021267;28;20051;-85
2023/03/08 04:43:36;;;;;;;13.90;11.18;;;-1.80;99.90;;;;;;5011247;28;20042;-85
2023/03/08 04:46:02;;;;;;;15.57;12.25;;;-1.80;99.90;;;;;;5005853;28;20041;-85
2023/03/08 04:48:28;;;;;;;14.25;12.32;;;-1.80;99.90;;;;;;5031542;28;20072;-85
2023/03/08 04:50:56;;;;;;;12.98;11.45;;;-1.80;99.90;;;;;;5017157;28;20474;-85
2023/03/08 04:53:23;;;;;;;15.02;11.32;;;-1.90;99.90;;;;;;5029897;28;20037;-86
2023/03/08 04:55:49;;;;;;;12.85;11.45;;;-1.90;99.90;;;;;;5006502;28;20041;-86
2023/03/08 04:58:15;;;;;;;14.18;12.40;;;-1.90;99.90;;;;;;4996034;28;20049;-85
2023/03/08 05:00:40;;;;;;;12.52;11.20;;;-1.90;99.90;;;;;;5016339;28;20033;-85
2023/03/08 05:03:06;;;;;;;15.60;11.93;;;-1.90;99.90;;;;;;5011600;28;20220;-85
2023/03/08 05:05:32;;;;;;;14.70;12.98;;;-1.90;99.90;;;;;;5008239;28;20038;-86
2023/03/08 05:08:04;;;;;;;14.23;12.68;;;-1.90;99.90;;;;;;5028993;28;20088;-85
2023/03/08 05:10:31;;;;;;;15.20;12.15;;;-1.90;99.90;;;;;;5014726;28;20038;-86
2023/03/08 05:12:57;;;;;;;13.57;11.45;;;-1.90;99.90;;;;;;5018970;28;20034;-86
2023/03/08 05:15:26;;;;;;;16.00;12.35;;;-1.90;99.90;;;;;;5034011;28;20029;-86
2023/03/08 05:17:55;;;;;;;16.45;12.90;;;-1.90;99.90;;;;;;5047766;28;20042;-86
2023/03/08 05:20:20;;;;;;;14.55;13.05;;;-1.80;99.90;;;;;;5027982;28;20077;-86
2023/03/08 05:22:52;;;;;;;16.23;12.65;;;-1.80;99.90;;;;;;5001941;28;20050;-86
2023/03/08 05:25:18;;;;;;;15.80;13.10;;;-1.80;99.90;;;;;;5003148;28;20025;-86
2023/03/08 05:27:44;;;;;;;14.27;12.77;;;-1.80;99.90;;;;;;5002397;28;20040;-86
2023/03/08 05:30:10;;;;;;;14.40;12.55;;;-1.80;99.90;;;;;;5017077;28;20038;-85
2023/03/08 05:32:35;;;;;;;13.88;11.52;;;-1.80;99.90;;;;;;5029787;28;20042;-85
2023/03/08 05:35:01;;;;;;;17.58;13.15;;;-1.80;99.90;;;;;;4997743;28;20052;-86
2023/03/08 05:37:27;;;;;;;17.52;12.52;;;-1.80;99.90;;;;;;4993375;28;20042;-86
2023/03/08 05:39:53;;;;;;;14.93;13.02;;;-1.80;99.90;;;;;;5009209;28;20207;-87
2023/03/08 05:42:19;;;;;;;13.88;12.48;;;-1.90;99.90;;;;;;4994182;28;20046;-85
2023/03/08 05:44:45;;;;;;;15.95;13.25;;;-1.90;99.90;;;;;;5018711;28;20089;-86
2023/03/08 05:47:11;;;;;;;17.92;13.57;;;-1.90;99.90;;;;;;4998333;28;20041;-86
2023/03/08 05:49:36;;;;;;;16.65;12.68;;;-1.90;99.90;;;;;;4999788;28;20039;-86
2023/03/08 05:52:02;;;;;;;16.15;13.13;;;-1.90;99.90;;;;;;5012333;28;20029;-86
2023/03/08 05:54:28;;;;;;;15.85;13.65;;;-1.90;99.90;;;;;;5002679;28;20069;-85
2023/03/08 05:56:54;;;;;;;14.13;12.70;;;-1.80;99.90;;;;;;5016428;28;20030;-86
2023/03/08 05:59:19;;;;;;;13.27;11.88;;;-1.90;99.90;;;;;;4994149;28;20076;-86
2023/03/08 06:01:45;;;;;;;14.07;12.68;;;-1.90;99.90;;;;;;4994507;28;20141;-86
2023/03/08 06:04:10;;;;;;;15.10;13.52;;;-1.80;99.90;;;;;;5022275;28;20033;-86
2023/03/08 06:06:36;;;;;;;14.02;12.60;;;-1.90;99.90;;;;;;5018348;28;20033;-85
2023/03/08 06:09:03;;;;;;;15.00;13.40;;;-1.80;99.90;;;;;;5004882;28;20044;-87
2023/03/08 06:11:29;;;;;;;18.88;14.65;;;-1.80;99.90;;;;;;4998463;28;20058;-86
2023/03/08 06:13:54;;;;;;;14.95;13.35;;;-1.80;99.90;;;;;;5013141;28;20049;-87
2023/03/08 06:16:20;;;;;;;14.88;13.27;;;-1.80;99.90;;;;;;4995888;28;20461;-87
2023/03/08 06:18:46;;;;;;;14.60;12.98;;;-1.80;99.90;;;;;;5007495;28;20093;-87
2023/03/08 06:21:14;;;;;;;17.10;13.48;;;-1.80;99.90;;;;;;4996185;28;20800;-86
2023/03/08 06:23:40;;;;;;;15.38;12.27;;;-1.80;99.90;;;;;;4980971;28;20047;-87
2023/03/08 06:26:07;;;;;;;15.77;12.60;;;-1.80;99.90;;;;;;5024322;28;20050;-86
2023/03/08 06:28:33;;;;;;;17.98;13.98;;;-1.70;99.90;;;;;;5030284;28;20045;-88
2023/03/08 06:30:59;;;;;;;16.13;13.57;;;-1.80;99.90;;;;;;5021691;28;20092;-87
2023/03/08 06:33:28;;;;;;;15.32;13.73;;;-1.80;99.90;;;;;;4991136;28;20065;-87
2023/03/08 06:35:59;;;;;;;16.00;14.15;;;-1.70;99.90;;;;;;5005613;28;20044;-87
2023/03/08 06:38:26;;;;;;;17.05;13.98;;;-1.80;99.90;;;;;;5034844;28;20037;-89
2023/03/08 06:40:51;;;;;;;18.70;15.68;;;-1.70;99.90;;;;;;5002459;28;20045;-87
2023/03/08 06:43:17;;;;;;;17.80;14.48;;;-1.70;99.90;;;;;;5006785;28;20489;-87
2023/03/08 06:45:43;;;;;;;18.75;13.82;;;-1.70;99.90;;;;;;5006914;28;20072;-87
2023/03/08 06:48:08;;;;;;;19.13;15.40;;;-1.70;99.90;;;;;;4997148;28;20046;-87
2023/03/08 06:50:34;;;;;;;22.08;18.17;;;-1.70;99.90;;;;;;4979112;28;20093;-87
2023/03/08 06:53:00;;;;;;;24.80;18.58;;;-1.70;99.90;;;;;;4980063;28;20110;-87
2023/03/08 06:55:26;;;;;;;21.00;17.98;;;-1.70;99.90;;;;;;4972185;28;20121;-87
2023/03/08 06:57:54;;;;;;;25.55;19.15;;;-1.70;99.90;;;;;;4993474;28;20120;-87
2023/03/08 07:00:20;;;;;;;35.83;21.80;;;-1.60;99.90;;;;;;5002425;28;20046;-87
2023/03/08 07:02:47;;;;;;;31.48;22.40;;;-1.60;99.90;;;;;;4983696;28;20045;-89
2023/03/08 07:05:14;;;;;;;67.07;25.05;;;-1.60;99.90;;;;;;4984892;28;20041;-86
2023/03/08 07:07:41;;;;;;;34.38;20.58;;;-1.50;99.90;;;;;;5001448;28;20050;-87
2023/03/08 07:10:09;;;;;;;39.40;21.83;;;-1.50;99.90;;;;;;4997438;28;20452;-88
2023/03/08 07:12:38;;;;;;;62.42;23.67;;;-1.50;99.90;;;;;;4995830;28;20064;-85
2023/03/08 07:15:08;;;;;;;56.47;23.42;;;-1.50;99.90;;;;;;4981689;28;20026;-87
2023/03/08 07:17:34;;;;;;;73.00;25.42;;;-1.50;99.90;;;;;;5025023;28;20039;-85
2023/03/08 07:20:06;;;;;;;51.50;25.17;;;-1.40;99.90;;;;;;5015294;28;20381;-87
2023/03/08 07:22:32;;;;;;;68.80;24.98;;;-1.40;99.90;;;;;;5003098;28;20041;-87
2023/03/08 07:24:58;;;;;;;36.88;22.77;;;-1.30;99.90;;;;;;4984301;28;20042;-85
2023/03/08 07:27:24;;;;;;;58.42;24.45;;;-1.30;99.90;;;;;;5014857;28;20041;-87
2023/03/08 07:29:50;;;;;;;45.97;25.20;;;-1.30;99.90;;;;;;4987970;28;20042;-87
2023/03/08 07:32:15;;;;;;;59.97;26.52;;;-1.30;99.90;;;;;;5009370;28;20050;-85
2023/03/08 07:34:44;;;;;;;42.58;25.38;;;-1.20;99.90;;;;;;4989218;28;20034;-86
2023/03/08 07:37:14;;;;;;;77.93;32.20;;;-1.10;99.90;;;;;;5023042;28;20503;-86
2023/03/08 07:39:40;;;;;;;65.55;36.50;;;-1.00;99.90;;;;;;5009314;28;20377;-85
2023/03/08 07:42:06;;;;;;;122.10;40.17;;;-1.00;99.90;;;;;;4997375;28;20073;-85
2023/03/08 07:44:31;;;;;;;70.57;36.03;;;-0.90;99.90;;;;;;5027063;28;20467;-86
2023/03/08 07:46:57;;;;;;;53.42;30.35;;;-0.80;99.90;;;;;;4990654;28;20049;-86
2023/03/08 07:49:23;;;;;;;58.00;26.00;;;-0.80;99.90;;;;;;5014951;28;20041;-86
2023/03/08 07:51:50;;;;;;;57.38;27.50;;;-0.80;99.90;;;;;;4997998;28;20053;-86
2023/03/08 07:54:16;;;;;;;61.25;24.80;;;-0.90;99.90;;;;;;5002021;28;20053;-86
2023/03/08 07:56:41;;;;;;;55.22;24.67;;;-0.80;99.90;;;;;;5015403;28;20045;-86
2023/03/08 07:59:07;;;;;;;98.55;28.27;;;-0.90;99.90;;;;;;5008746;28;20041;-86
2023/03/08 08:01:33;;;;;;;67.25;26.20;;;-0.80;99.90;;;;;;4990124;28;20069;-86
2023/03/08 08:03:59;;;;;;;68.82;31.42;;;-0.80;99.90;;;;;;4995649;28;20116;-86
2023/03/08 08:06:25;;;;;;;99.72;30.63;;;-0.80;99.90;;;;;;5022883;28;20066;-86
2023/03/08 08:08:51;;;;;;;50.58;27.48;;;-0.80;99.90;;;;;;5011719;28;20030;-86
2023/03/08 08:11:20;;;;;;;68.85;30.45;;;-0.70;99.90;;;;;;5033266;28;20069;-85
2023/03/08 08:13:46;;;;;;;46.50;24.00;;;-0.70;99.90;;;;;;4987092;28;20501;-86
2023/03/08 08:16:13;;;;;;;86.03;28.25;;;-0.70;99.90;;;;;;5013095;28;20040;-85
2023/03/08 08:18:39;;;;;;;44.67;25.75;;;-0.60;99.90;;;;;;5016507;28;20504;-85
2023/03/08 08:21:07;;;;;;;57.50;25.30;;;-0.60;99.90;;;;;;5015103;28;20052;-85
2023/03/08 08:23:34;;;;;;;52.63;26.77;;;-0.50;99.90;;;;;;5016251;28;20042;-85
2023/03/08 08:26:04;;;;;;;61.33;25.70;;;-0.50;99.90;;;;;;4989979;28;20041;-86
2023/03/08 08:28:29;;;;;;;34.60;21.73;;;-0.60;99.90;;;;;;5010314;28;20049;-86
2023/03/08 08:31:09;;;;;;;43.83;23.88;;;-0.50;99.90;;;;;;4998772;28;20452;-86
2023/03/08 08:33:36;;;;;;;35.08;20.35;;;-0.50;99.90;;;;;;5028163;28;20034;-86
2023/03/08 08:36:07;;;;;;;85.93;23.80;;;-0.50;99.90;;;;;;5002750;28;20093;-86
2023/03/08 08:38:33;;;;;;;64.00;24.05;;;-0.50;99.90;;;;;;4998620;28;20172;-85
2023/03/08 08:41:02;;;;;;;34.00;21.23;;;-0.50;99.90;;;;;;5031370;28;20046;-85
2023/03/08 08:43:29;;;;;;;70.13;23.88;;;-0.40;99.90;;;;;;4995720;28;20041;-85
2023/03/08 08:45:56;;;;;;;41.97;24.45;;;-0.40;99.90;;;;;;5028062;28;20121;-85
2023/03/08 08:48:22;;;;;;;101.57;30.42;;;-0.40;99.90;;;;;;5028047;28;20079;-85
2023/03/08 08:50:48;;;;;;;47.80;25.13;;;-0.40;99.90;;;;;;5001332;28;20532;-85
2023/03/08 08:53:26;;;;;;;49.70;27.13;;;-0.40;99.90;;;;;;5006210;28;20069;-85
2023/03/08 08:56:54;;;;;;;56.42;26.02;;;-0.40;99.90;;;;;;4998038;28;20046;-85
2023/03/08 08:59:38;;;;;;;31.30;19.70;;;-0.30;99.90;;;;;;5007644;28;20626;-85
2023/03/08 09:02:19;;;;;;;36.95;23.40;;;-0.20;99.90;;;;;;4996685;28;20049;-85
2023/03/08 09:05:08;;;;;;;37.60;23.17;;;0.00;99.90;;;;;;4998381;28;20570;-85
2023/03/08 09:08:02;;;;;;;75.65;26.17;;;0.10;99.90;;;;;;5002178;28;20037;-85
2023/03/08 09:11:02;;;;;;;85.60;24.05;;;0.20;99.90;;;;;;4992615;28;20037;-85
2023/03/08 09:13:27;;;;;;;36.75;21.60;;;0.20;99.90;;;;;;4994313;28;20042;-86
2023/03/08 09:15:59;;;;;;;79.18;23.45;;;0.10;99.90;;;;;;4987899;28;20065;-85
2023/03/08 09:18:44;;;;;;;39.33;20.95;;;0.20;99.90;;;;;;5029516;28;20053;-85
2023/03/08 09:21:21;;;;;;;39.40;20.48;;;0.30;99.90;;;;;;5043236;28;20043;-86
2023/03/08 09:23:51;;;;;;;71.45;24.45;;;0.30;99.90;;;;;;5003355;28;20042;-86
2023/03/08 09:26:35;;;;;;;52.22;24.58;;;0.30;99.90;;;;;;4993465;28;20103;-85
2023/03/08 09:29:18;;;;;;;67.63;26.58;;;0.30;99.90;;;;;;5005028;28;20579;-86
2023/03/08 09:31:45;;;;;;;90.65;29.35;;;0.30;99.90;;;;;;5004358;28;20040;-85
2023/03/08 09:34:13;;;;;;;58.45;26.92;;;0.40;99.90;;;;;;5019348;28;20044;-85
2023/03/08 09:37:28;;;;;;;52.55;26.17;;;0.30;99.90;;;;;;5025567;28;20046;-86
2023/03/08 09:40:25;;;;;;;45.58;23.88;;;0.50;99.90;;;;;;4996172;28;20046;-85
2023/03/08 09:42:50;;;;;;;47.40;23.38;;;0.50;99.90;;;;;;5010201;28;20516;-86
2023/03/08 09:45:28;;;;;;;43.13;23.75;;;0.50;99.90;;;;;;4992637;28;20040;-86
2023/03/08 09:48:18;;;;;;;42.95;23.88;;;0.70;99.90;;;;;;5023396;28;20046;-86
2023/03/08 09:51:22;;;;;;;36.40;20.02;;;0.80;99.90;;;;;;4989369;28;20042;-86
2023/03/08 09:54:22;;;;;;;35.38;20.02;;;0.80;99.90;;;;;;5023116;28;20041;-86
2023/03/08 09:56:54;;;;;;;33.55;19.38;;;0.90;99.90;;;;;;4983681;28;20046;-86
2023/03/08 09:59:58;;;;;;;32.63;18.02;;;1.00;99.90;;;;;;4986804;28;20058;-85
2023/03/08 10:03:02;;;;;;;29.38;18.00;;;1.00;99.90;;;;;;5007678;28;20061;-86
2023/03/08 10:09:24;;;;;;;35.42;18.20;;;0.90;99.90;;;;;;5006179;28;20050;-86
2023/03/08 10:12:28;;;;;;;34.45;18.45;;;1.00;99.90;;;;;;4993723;28;20060;-86
2023/03/08 10:15:04;;;;;;;35.88;18.83;;;1.10;99.90;;;;;;4979079;28;20072;-86
2023/03/08 10:18:21;;;;;;;36.75;19.83;;;1.30;99.90;;;;;;4998384;28;20049;-86
2023/03/08 10:20:47;;;;;;;34.38;19.25;;;1.50;99.90;;;;;;4996182;28;20686;-86
2023/03/08 10:23:17;;;;;;;39.30;20.08;;;1.60;99.90;;;;;;5024151;23;20033;-35
2023/03/08 10:25:44;;;;;;;34.03;19.83;;;1.70;99.90;;;;;;5011150;28;20096;-35
2023/03/08 10:28:17;;;;;;;34.15;17.77;;;1.80;99.90;;;;;;5022266;28;20482;-35
2023/03/08 10:31:15;;;;;;;32.22;19.10;;;1.90;99.90;;;;;;5011357;28;20048;-34
2023/03/08 10:33:40;;;;;;;32.35;18.42;;;2.00;99.90;;;;;;4997895;28;20482;-35
2023/03/08 10:36:16;;;;;;;28.63;17.13;;;2.00;99.90;;;;;;5029765;28;20080;-35
2023/03/08 10:38:41;;;;;;;28.10;16.92;;;2.00;99.90;;;;;;5024215;28;20124;-35
2023/03/08 10:41:15;;;;;;;26.55;16.98;;;2.10;99.90;;;;;;5006897;28;20133;-35
2023/03/08 10:43:47;;;;;;;30.17;18.00;;;2.00;99.90;;;;;;5018669;28;20049;-35
2023/03/08 10:46:24;;;;;;;28.73;16.38;;;2.10;99.90;;;;;;5024538;28;20033;-35
2023/03/08 10:48:50;;;;;;;27.08;16.30;;;2.10;99.90;;;;;;5029922;28;20514;-34
2023/03/08 10:51:20;;;;;;;29.00;16.80;;;2.10;99.90;;;;;;5011656;28;20073;-35
2023/03/08 10:54:03;;;;;;;26.30;15.52;;;2.20;99.90;;;;;;5024511;28;20125;-35
2023/03/08 10:56:43;;;;;;;28.88;17.08;;;2.30;99.90;;;;;;5016180;28;20033;-35
2023/03/08 10:59:26;;;;;;;29.20;16.98;;;2.50;99.90;;;;;;5027835;28;20040;-35
2023/03/08 11:01:56;;;;;;;29.30;16.30;;;2.60;99.90;;;;;;5004089;28;20560;-35
2023/03/08 11:04:23;;;;;;;26.75;16.27;;;2.70;99.90;;;;;;5020618;28;20125;-35
2023/03/08 11:06:49;;;;;;;26.02;15.23;;;2.80;99.90;;;;;;5028433;28;20041;-35
2023/03/08 11:09:22;;;;;;;24.83;15.48;;;2.90;99.90;;;;;;5026973;28;20077;-35
2023/03/08 11:11:48;;;;;;;27.08;15.52;;;3.00;99.90;;;;;;5021848;28;20430;-35
2023/03/08 11:14:14;;;;;;;22.58;14.27;;;2.90;99.90;;;;;;4991183;28;20034;-35
2023/03/08 11:16:52;;;;;;;23.85;14.73;;;2.90;99.90;;;;;;5009006;28;20044;-35
2023/03/08 11:19:21;;;;;;;24.40;14.23;;;3.00;99.90;;;;;;5020048;28;20041;-36
2023/03/08 11:22:24;;;;;;;26.90;15.05;;;3.10;99.90;;;;;;5027677;28;20064;-35
2023/03/08 11:25:08;;;;;;;26.52;14.90;;;3.10;99.90;;;;;;5025434;28;20045;-35
2023/03/08 11:27:54;;;;;;;;;;;3.20;99.90;;;;;;5018144;28;20041;-38
2023/03/08 11:30:53;;;;;;;23.45;14.02;;;3.30;99.90;;;;;;5020251;28;19925;-37
2023/03/08 11:33:31;;;;;;;29.27;15.70;;;3.40;99.90;;;;;;5006042;28;20037;-37
2023/03/08 11:36:16;;;;;;;24.45;14.20;;;3.50;99.90;;;;;;5030003;28;20096;-38
2023/03/08 11:38:43;;;;;;;24.27;14.57;;;3.50;99.90;;;;;;5029637;28;20064;-37
2023/03/08 11:41:33;;;;;;;25.73;15.70;;;3.50;99.90;;;;;;5020206;28;20041;-38
2023/03/08 11:44:52;;;;;;;23.00;14.18;;;3.60;99.90;;;;;;5023734;28;20069;-40
2023/03/08 11:47:33;;;;;;;23.95;14.25;;;3.50;99.90;;;;;;4984032;28;20139;-37
2023/03/08 11:50:27;;;;;;;27.85;14.70;;;3.70;99.90;;;;;;5007904;28;20095;-36
2023/03/08 11:53:16;;;;;;;23.95;14.02;;;3.80;99.90;;;;;;5010037;28;20042;-39
2023/03/08 11:55:58;;;;;;;26.20;14.85;;;3.90;99.90;;;;;;5020127;28;20048;-39
2023/03/08 11:58:45;;;;;;;26.45;14.85;;;4.00;99.90;;;;;;5028566;28;20546;-37
2023/03/08 12:01:28;;;;;;;25.60;15.05;;;4.10;99.90;;;;;;5016062;28;20037;-36
2023/03/08 12:03:57;;;;;;;24.15;15.55;;;4.20;99.90;;;;;;5022111;28;20045;-36
2023/03/08 12:06:29;;;;;;;24.58;14.88;;;4.20;99.90;;;;;;5017242;28;20034;-37
2023/03/08 12:08:58;;;;;;;23.63;14.38;;;4.30;99.90;;;;;;5023873;28;20037;-38
2023/03/08 12:11:29;;;;;;;26.75;14.60;;;4.40;99.90;;;;;;5025154;28;20177;-33
2023/03/08 12:14:31;;;;;;;22.15;13.88;;;4.40;99.90;;;;;;5015280;28;20038;-35
2023/03/08 12:17:14;;;;;;;23.67;14.60;;;4.40;99.90;;;;;;5001025;28;20052;-35
2023/03/08 12:19:46;;;;;;;18.67;12.47;;;4.50;99.90;;;;;;5015359;28;20091;-35
2023/03/08 12:22:37;;;;;;;22.05;12.55;;;4.40;99.90;;;;;;5014692;28;20648;-35
2023/03/08 12:25:21;;;;;;;18.45;11.82;;;4.40;99.90;;;;;;5029845;28;20401;-35
2023/03/08 12:27:53;;;;;;;20.58;11.90;;;4.30;99.90;;;;;;5032119;28;20041;-34
2023/03/08 12:30:35;;;;;;;17.63;11.77;;;4.30;99.90;;;;;;5018912;28;20041;-34
2023/03/08 12:33:03;;;;;;;21.00;12.13;;;4.30;99.90;;;;;;5028590;28;20038;-35
2023/03/08 12:35:37;;;;;;;19.88;12.90;;;4.30;99.90;;;;;;5027894;28;20037;-35
2023/03/08 12:38:14;;;;;;;20.17;12.30;;;4.30;99.90;;;;;;5032796;28;20375;-35
2023/03/08 12:40:46;;;;;;;22.38;12.65;;;4.30;99.90;;;;;;5025537;28;20506;-35
2023/03/08 12:43:26;;;;;;;22.02;13.75;;;4.40;99.90;;;;;;5017887;28;20066;-35
2023/03/08 12:45:58;;;;;;;26.60;14.90;;;4.40;99.90;;;;;;5031818;28;20033;-35
2023/03/08 12:48:27;;;;;;;28.20;15.13;;;4.30;99.90;;;;;;5031795;28;20029;-35
2023/03/08 12:50:56;;;;;;;27.67;15.88;;;4.30;99.90;;;;;;5029109;28;20486;-33
2023/03/08 12:53:39;;;;;;;31.70;16.13;;;4.40;99.90;;;;;;5046427;23;20167;-35
2023/03/08 12:56:11;;;;;;;30.45;15.48;;;4.40;99.90;;;;;;5051619;28;20120;-36
2023/03/08 12:58:49;;;;;;;31.50;17.70;;;4.30;99.90;;;;;;5047792;28;20532;-35
2023/03/08 13:01:36;;;;;;;34.22;17.13;;;4.40;99.90;;;;;;5048571;28;20033;-36
2023/03/08 13:04:25;;;;;;;33.38;17.25;;;4.40;99.90;;;;;;5046414;28;20025;-36
2023/03/08 13:06:50;;;;;;;36.13;16.95;;;4.40;99.90;;;;;;5051073;28;20124;-36
2023/03/08 13:09:27;;;;;;;29.90;15.60;;;4.40;99.90;;;;;;5036979;28;20116;-35
2023/03/08 13:12:22;;;;;;;29.52;15.57;;;4.40;99.90;;;;;;5026503;28;20037;-36
2023/03/08 13:15:17;;;;;;;27.00;14.95;;;4.40;99.90;;;;;;5024354;28;20061;-36
2023/03/08 13:17:56;;;;;;;21.75;13.32;;;4.40;99.90;;;;;;5045426;28;20064;-36
2023/03/08 13:20:39;;;;;;;28.00;13.98;;;4.40;99.90;;;;;;5040653;28;20041;-35
2023/03/08 13:23:14;;;;;;;23.80;12.50;;;4.40;99.90;;;;;;5051949;28;20041;-35
2023/03/08 13:26:11;;;;;;;22.83;12.48;;;4.40;99.90;;;;;;5045814;28;20349;-36
2023/03/08 13:28:40;;;;;;;23.33;13.57;;;4.40;99.90;;;;;;5024024;28;20053;-35
2023/03/08 13:31:27;;;;;;;22.02;12.07;;;4.50;99.90;;;;;;5040555;28;20037;-35
2023/03/08 13:33:55;;;;;;;21.38;11.55;;;4.40;99.90;;;;;;5033055;28;20041;-35
2023/03/08 13:36:23;;;;;;;20.55;11.00;;;4.40;99.90;;;;;;5050803;28;20048;-36
2023/03/08 13:39:16;;;;;;;22.20;12.18;;;4.40;99.90;;;;;;5042831;28;20064;-36
2023/03/08 13:41:44;;;;;;;20.35;11.25;;;4.50;99.90;;;;;;5027462;28;20068;-35
2023/03/08 13:44:16;;;;;;;16.95;9.73;;;4.50;99.90;;;;;;5041698;28;20079;-35
2023/03/08 13:46:42;;;;;;;16.05;9.32;;;4.50;99.90;;;;;;5045778;28;20537;-36
2023/03/08 13:49:31;;;;;;;22.45;9.95;;;4.60;99.90;;;;;;5047959;28;20112;-36
2023/03/08 13:51:59;;;;;;;13.90;7.82;;;4.70;99.90;;;;;;5047415;28;20041;-36
2023/03/08 13:54:30;;;;;;;11.57;6.97;;;4.80;99.90;;;;;;5045359;28;20395;-36
2023/03/08 13:56:58;;;;;;;14.55;8.02;;;4.90;99.90;;;;;;5025814;28;20434;-36
2023/03/08 13:59:25;;;;;;;11.30;6.30;;;5.00;99.90;;;;;;5027164;28;20457;-36
2023/03/08 14:01:52;;;;;;;11.18;6.20;;;5.00;99.90;;;;;;5047355;28;20510;-36
2023/03/08 14:04:26;;;;;;;13.88;8.48;;;5.10;99.90;;;;;;5040260;28;20028;-36
2023/03/08 14:06:55;;;;;;;13.07;8.05;;;5.10;99.90;;;;;;5042743;28;20040;-35
2023/03/08 14:09:22;;;;;;;10.93;7.00;;;5.20;99.90;;;;;;5042242;28;20223;-35
2023/03/08 14:12:20;;;;;;;10.77;6.32;;;5.20;99.90;;;;;;5043279;28;20033;-36
2023/03/08 14:14:59;;;;;;;12.98;7.63;;;5.30;99.90;;;;;;5049386;28;20037;-36
2023/03/08 14:17:28;;;;;;;9.95;6.72;;;5.40;99.90;;;;;;5015603;28;20506;-36
2023/03/08 14:20:18;;;;;;;11.38;7.35;;;5.50;99.90;;;;;;5019844;28;20037;-35
2023/03/08 14:22:47;;;;;;;12.55;7.50;;;5.70;99.90;;;;;;5044432;28;20448;-36
2023/03/08 14:25:29;;;;;;;9.55;6.10;;;5.80;99.90;;;;;;5049054;28;20083;-36
2023/03/08 14:27:56;;;;;;;9.55;5.93;;;5.80;99.90;;;;;;5041766;28;20045;-36
2023/03/08 14:30:27;;;;;;;9.23;6.22;;;5.80;99.90;;;;;;5047540;28;20055;-36
2023/03/08 14:33:18;;;;;;;8.82;5.75;;;5.80;99.90;;;;;;5038486;28;20354;-36
2023/03/08 14:35:52;;;;;;;9.23;5.65;;;5.80;99.90;;;;;;5034465;28;20460;-35
2023/03/08 14:38:22;;;;;;;9.32;5.95;;;5.70;99.90;;;;;;5036440;28;20041;-36
2023/03/08 14:40:49;;;;;;;7.82;5.47;;;5.60;99.90;;;;;;5042301;28;20040;-36
2023/03/08 14:43:18;;;;;;;7.47;4.53;;;5.60;99.90;;;;;;5040237;28;20032;-35
2023/03/08 14:46:16;;;;;;;6.60;4.40;;;5.60;99.90;;;;;;5039241;28;20039;-35
2023/03/08 14:48:41;;;;;;;6.22;4.05;;;5.40;99.90;;;;;;5044817;28;20059;-36
2023/03/08 14:51:16;;;;;;;6.57;4.15;;;5.30;99.90;;;;;;5049156;28;20486;-35
2023/03/08 14:53:42;;;;;;;7.60;4.70;;;5.30;99.90;;;;;;5035335;28;20489;-36
2023/03/08 14:56:15;;;;;;;9.30;4.40;;;5.20;99.90;;;;;;5041339;28;20116;-36
2023/03/08 14:58:45;;;;;;;5.32;4.22;;;5.30;99.90;;;;;;5043155;28;20406;-36
2023/03/08 15:01:11;;;;;;;8.65;5.00;;;5.40;99.90;;;;;;5038417;28;20044;-36
2023/03/08 15:03:37;;;;;;;7.78;5.07;;;5.60;99.90;;;;;;5048124;28;20128;-36
2023/03/08 15:06:14;;;;;;;8.38;4.97;;;6.00;99.90;;;;;;5048692;28;20109;-37
2023/03/08 15:08:40;;;;;;;7.20;5.32;;;6.00;99.90;;;;;;5024381;28;20402;-36
2023/03/08 15:11:07;;;;;;;9.05;5.72;;;6.20;99.90;;;;;;5045565;28;20041;-35
2023/03/08 15:13:32;;;;;;;10.80;5.20;;;6.10;99.90;;;;;;5046326;28;20033;-34
2023/03/08 15:15:58;;;;;;;7.85;5.13;;;6.10;99.90;;;;;;5046328;28;20087;-35
2023/03/08 15:18:23;;;;;;;8.23;5.63;;;6.10;99.90;;;;;;5047669;28;20119;-35
2023/03/08 15:20:50;;;;;;;7.97;5.72;;;6.00;99.90;;;;;;5049972;28;20543;-35
2023/03/08 15:23:36;;;;;;;11.30;6.40;;;5.90;99.90;;;;;;5017040;28;20108;-35
2023/03/08 15:26:05;;;;;;;9.23;5.50;;;5.70;99.90;;;;;;5025647;28;20045;-35
2023/03/08 15:28:31;;;;;;;8.18;5.32;;;5.60;99.90;;;;;;5044894;28;20045;-35
2023/03/08 15:30:56;;;;;;;7.93;5.32;;;5.40;99.90;;;;;;5032578;28;20060;-35
2023/03/08 15:33:22;;;;;;;7.65;5.28;;;5.30;99.90;;;;;;5055585;23;20056;-33
2023/03/08 15:35:49;;;;;;;8.50;5.25;;;5.20;99.90;;;;;;5050960;28;20512;-33
2023/03/08 15:38:16;;;;;;;7.07;5.15;;;5.10;99.90;;;;;;5048558;28;20448;-33
2023/03/08 15:40:42;;;;;;;8.60;5.40;;;5.00;99.90;;;;;;5049852;28;20090;-33
2023/03/08 15:43:08;;;;;;;8.95;5.18;;;5.00;99.90;;;;;;5049297;28;20119;-33
2023/03/08 15:45:34;;;;;;;8.18;5.32;;;4.90;99.90;;;;;;5045147;28;20379;-37
2023/03/08 15:48:16;;;;;;;9.25;4.97;;;4.90;99.90;;;;;;5038477;28;20043;-39
2023/03/08 15:50:43;;;;;;;8.55;4.60;;;4.80;99.90;;;;;;5038343;28;20045;-38
2023/03/08 15:53:11;;;;;;;7.82;5.25;;;4.80;99.90;;;;;;5026445;28;20559;-37
2023/03/08 15:55:38;;;;;;;9.63;5.28;;;4.80;99.90;;;;;;5021701;28;20033;-38
2023/03/08 15:58:04;;;;;;;6.88;5.22;;;4.70;99.90;;;;;;5027612;28;20080;-37
2023/03/08 16:00:31;;;;;;;8.23;5.25;;;4.70;99.90;;;;;;5002321;28;20053;-38
2023/03/08 16:02:57;;;;;;;8.20;5.38;;;4.60;99.90;;;;;;5007213;28;20037;-38
2023/03/08 16:05:24;;;;;;;7.90;5.32;;;4.60;99.90;;;;;;5023051;28;20080;-38
2023/03/08 16:08:01;;;;;;;8.13;4.75;;;4.50;99.90;;;;;;5026874;28;20039;-38
2023/03/08 16:10:30;;;;;;;7.88;5.30;;;4.40;99.90;;;;;;5050212;28;20048;-36
2023/03/08 16:12:56;;;;;;;8.30;5.30;;;4.30;99.90;;;;;;5031382;28;20241;-37
2023/03/08 16:15:22;;;;;;;8.57;5.03;;;4.30;99.90;;;;;;5035539;28;20063;-37
2023/03/08 16:17:48;;;;;;;7.43;5.22;;;4.20;99.90;;;;;;5032565;28;20517;-37
2023/03/08 16:20:15;;;;;;;8.93;5.50;;;4.10;99.90;;;;;;5052053;28;20073;-37
2023/03/08 16:22:41;;;;;;;9.20;5.85;;;4.10;99.90;;;;;;5012818;28;20049;-37
2023/03/08 16:25:08;;;;;;;7.50;5.00;;;4.00;99.90;;;;;;5030530;28;20402;-36
2023/03/08 16:27:35;;;;;;;8.13;5.20;;;3.90;99.90;;;;;;5017456;28;20068;-36
2023/03/08 16:30:07;;;;;;;9.50;5.45;;;3.90;99.90;;;;;;5029617;28;20047;-36
2023/03/08 16:32:33;;;;;;;9.27;6.00;;;3.80;99.90;;;;;;5035349;28;20387;-38
2023/03/08 16:34:59;;;;;;;8.40;6.00;;;3.80;99.90;;;;;;5052474;28;20080;-38
2023/03/08 16:37:26;;;;;;;9.43;5.88;;;3.70;99.90;;;;;;5009185;28;20048;-35
2023/03/08 16:39:53;;;;;;;11.27;6.03;;;3.70;99.90;;;;;;5014766;28;20064;-36
2023/03/08 16:42:21;;;;;;;8.63;5.78;;;3.60;99.90;;;;;;5059357;23;20508;-34
2023/03/08 16:51:43;;;;;;;8.55;5.45;;;3.60;99.90;;;;;;5022616;28;20065;-35
2023/03/08 16:54:15;;;;;;;8.82;5.38;;;3.50;99.90;;;;;;5016179;28;20143;-35
2023/03/08 16:56:52;;;;;;;9.95;6.00;;;3.50;99.90;;;;;;5025775;28;20084;-35
2023/03/08 16:59:51;;;;;;;10.35;6.28;;;3.50;99.90;;;;;;5026618;28;20041;-35
2023/03/08 17:02:28;;;;;;;10.80;6.78;;;3.40;99.90;;;;;;5027161;28;20041;-36
2023/03/08 17:05:34;;;;;;;12.15;6.93;;;3.30;99.90;;;;;;5013890;28;20093;-35